sensor_id;sensor_type;location;lat;lon;timestamp;P1;durP1;ratioP1;P2;durP2;ratioP2
4595;SDS011;2310;49.978;8.742;2023-09-08T00:02:59;11.37;;;8.87;;
4595;SDS011;2310;49.978;8.742;2023-09-08T00:07:00;11.13;;;9.30;;
4595;SDS011;2310;49.978;8.742;2023-09-08T00:11:02;12.43;;;9.77;;
4595;SDS011;2310;49.978;8.742;2023-09-08T00:15:03;11.33;;;10.23;;
4595;SDS011;2310;49.978;8.742;2023-09-08T00:19:05;10.47;;;9.50;;
4595;SDS011;2310;49.978;8.742;2023-09-08T00:23:07;12.37;;;9.97;;
4595;SDS011;2310;49.978;8.742;2023-09-08T00:27:08;10.30;;;9.30;;
4595;SDS011;2310;49.978;8.742;2023-09-08T00:31:10;10.57;;;9.57;;
4595;SDS011;2310;49.978;8.742;2023-09-08T00:35:12;12.37;;;10.50;;
4595;SDS011;2310;49.978;8.742;2023-09-08T00:39:14;11.37;;;10.27;;
4595;SDS011;2310;49.978;8.742;2023-09-08T00:43:16;12.13;;;9.60;;
4595;SDS011;2310;49.978;8.742;2023-09-08T00:47:18;10.87;;;9.73;;
4595;SDS011;2310;49.978;8.742;2023-09-08T00:51:19;11.30;;;10.20;;
4595;SDS011;2310;49.978;8.742;2023-09-08T00:55:21;11.10;;;10.00;;
4595;SDS011;2310;49.978;8.742;2023-09-08T00:59:23;11.70;;;10.60;;
4595;SDS011;2310;49.978;8.742;2023-09-08T01:03:25;11.33;;;9.33;;
4595;SDS011;2310;49.978;8.742;2023-09-08T01:07:27;11.00;;;9.80;;
4595;SDS011;2310;49.978;8.742;2023-09-08T01:11:31;8.90;;;8.00;;
4595;SDS011;2310;49.978;8.742;2023-09-08T01:15:33;10.77;;;9.50;;
4595;SDS011;2310;49.978;8.742;2023-09-08T01:19:34;11.53;;;8.47;;
4595;SDS011;2310;49.978;8.742;2023-09-08T01:23:44;10.50;;;8.60;;
4595;SDS011;2310;49.978;8.742;2023-09-08T01:27:54;9.63;;;8.63;;
4595;SDS011;2310;49.978;8.742;2023-09-08T01:31:51;11.30;;;8.50;;
4595;SDS011;2310;49.978;8.742;2023-09-08T01:35:53;8.10;;;7.27;;
4595;SDS011;2310;49.978;8.742;2023-09-08T01:39:56;9.50;;;8.50;;
4595;SDS011;2310;49.978;8.742;2023-09-08T01:43:57;13.60;;;9.30;;
4595;SDS011;2310;49.978;8.742;2023-09-08T01:47:59;13.13;;;8.80;;
4595;SDS011;2310;49.978;8.742;2023-09-08T01:52:00;10.63;;;8.80;;
4595;SDS011;2310;49.978;8.742;2023-09-08T01:56:02;14.17;;;9.53;;
4595;SDS011;2310;49.978;8.742;2023-09-08T02:00:04;11.10;;;9.80;;
4595;SDS011;2310;49.978;8.742;2023-09-08T02:04:06;9.30;;;8.40;;
4595;SDS011;2310;49.978;8.742;2023-09-08T02:08:07;10.03;;;8.63;;
4595;SDS011;2310;49.978;8.742;2023-09-08T02:12:09;10.20;;;9.20;;
4595;SDS011;2310;49.978;8.742;2023-09-08T02:16:16;9.33;;;8.43;;
4595;SDS011;2310;49.978;8.742;2023-09-08T02:20:17;14.40;;;8.67;;
4595;SDS011;2310;49.978;8.742;2023-09-08T02:24:19;12.30;;;9.20;;
4595;SDS011;2310;49.978;8.742;2023-09-08T02:28:20;10.70;;;8.57;;
4595;SDS011;2310;49.978;8.742;2023-09-08T02:32:21;9.90;;;8.93;;
4595;SDS011;2310;49.978;8.742;2023-09-08T02:36:23;9.93;;;8.90;;
4595;SDS011;2310;49.978;8.742;2023-09-08T02:40:27;10.87;;;9.50;;
4595;SDS011;2310;49.978;8.742;2023-09-08T02:44:28;11.07;;;9.80;;
4595;SDS011;2310;49.978;8.742;2023-09-08T02:48:30;10.13;;;8.80;;
4595;SDS011;2310;49.978;8.742;2023-09-08T02:52:32;9.97;;;8.97;;
4595;SDS011;2310;49.978;8.742;2023-09-08T02:56:33;9.80;;;8.80;;
4595;SDS011;2310;49.978;8.742;2023-09-08T03:00:34;12.17;;;10.00;;
4595;SDS011;2310;49.978;8.742;2023-09-08T03:04:36;10.83;;;9.40;;
4595;SDS011;2310;49.978;8.742;2023-09-08T03:08:38;12.00;;;10.73;;
4595;SDS011;2310;49.978;8.742;2023-09-08T03:12:39;10.13;;;9.20;;
4595;SDS011;2310;49.978;8.742;2023-09-08T03:16:40;11.73;;;9.27;;
4595;SDS011;2310;49.978;8.742;2023-09-08T03:20:42;9.53;;;8.63;;
4595;SDS011;2310;49.978;8.742;2023-09-08T03:24:44;11.33;;;9.40;;
4595;SDS011;2310;49.978;8.742;2023-09-08T03:28:46;10.17;;;9.17;;
4595;SDS011;2310;49.978;8.742;2023-09-08T03:32:47;11.50;;;9.50;;
4595;SDS011;2310;49.978;8.742;2023-09-08T03:36:48;11.23;;;8.50;;
4595;SDS011;2310;49.978;8.742;2023-09-08T03:40:51;10.43;;;9.23;;
4595;SDS011;2310;49.978;8.742;2023-09-08T03:44:52;10.33;;;9.33;;
4595;SDS011;2310;49.978;8.742;2023-09-08T03:48:53;10.83;;;9.67;;
4595;SDS011;2310;49.978;8.742;2023-09-08T03:52:57;11.07;;;9.73;;
4595;SDS011;2310;49.978;8.742;2023-09-08T03:56:58;12.23;;;9.97;;
4595;SDS011;2310;49.978;8.742;2023-09-08T04:00:59;12.80;;;10.37;;
4595;SDS011;2310;49.978;8.742;2023-09-08T04:05:01;10.97;;;9.90;;
4595;SDS011;2310;49.978;8.742;2023-09-08T04:09:02;12.17;;;10.20;;
4595;SDS011;2310;49.978;8.742;2023-09-08T04:13:04;14.20;;;10.70;;
4595;SDS011;2310;49.978;8.742;2023-09-08T04:17:05;10.70;;;9.20;;
4595;SDS011;2310;49.978;8.742;2023-09-08T04:21:08;9.53;;;8.47;;
4595;SDS011;2310;49.978;8.742;2023-09-08T04:25:10;11.50;;;10.30;;
4595;SDS011;2310;49.978;8.742;2023-09-08T04:29:12;12.50;;;11.30;;
4595;SDS011;2310;49.978;8.742;2023-09-08T04:33:13;12.43;;;11.10;;
4595;SDS011;2310;49.978;8.742;2023-09-08T04:37:15;12.03;;;10.83;;
4595;SDS011;2310;49.978;8.742;2023-09-08T04:41:16;16.23;;;11.17;;
4595;SDS011;2310;49.978;8.742;2023-09-08T04:45:17;12.27;;;10.90;;
4595;SDS011;2310;49.978;8.742;2023-09-08T04:49:19;13.40;;;10.27;;
4595;SDS011;2310;49.978;8.742;2023-09-08T04:53:20;14.17;;;12.67;;
4595;SDS011;2310;49.978;8.742;2023-09-08T04:57:21;11.97;;;10.67;;
4595;SDS011;2310;49.978;8.742;2023-09-08T05:01:25;14.60;;;11.30;;
4595;SDS011;2310;49.978;8.742;2023-09-08T05:05:26;13.40;;;11.30;;
4595;SDS011;2310;49.978;8.742;2023-09-08T05:09:28;13.83;;;11.60;;
4595;SDS011;2310;49.978;8.742;2023-09-08T05:13:29;12.17;;;10.97;;
4595;SDS011;2310;49.978;8.742;2023-09-08T05:17:32;11.63;;;10.53;;
4595;SDS011;2310;49.978;8.742;2023-09-08T05:21:35;11.57;;;10.37;;
4595;SDS011;2310;49.978;8.742;2023-09-08T05:25:36;14.40;;;10.60;;
4595;SDS011;2310;49.978;8.742;2023-09-08T05:29:38;12.33;;;11.13;;
4595;SDS011;2310;49.978;8.742;2023-09-08T05:33:39;11.87;;;10.37;;
4595;SDS011;2310;49.978;8.742;2023-09-08T05:37:41;12.30;;;10.40;;
4595;SDS011;2310;49.978;8.742;2023-09-08T05:41:42;11.87;;;10.60;;
4595;SDS011;2310;49.978;8.742;2023-09-08T05:45:44;12.37;;;11.00;;
4595;SDS011;2310;49.978;8.742;2023-09-08T05:49:45;12.73;;;10.80;;
4595;SDS011;2310;49.978;8.742;2023-09-08T05:53:46;11.70;;;10.50;;
4595;SDS011;2310;49.978;8.742;2023-09-08T05:57:48;11.70;;;10.60;;
4595;SDS011;2310;49.978;8.742;2023-09-08T06:01:49;13.00;;;11.07;;
4595;SDS011;2310;49.978;8.742;2023-09-08T06:05:51;10.93;;;9.73;;
4595;SDS011;2310;49.978;8.742;2023-09-08T06:09:52;12.07;;;10.87;;
4595;SDS011;2310;49.978;8.742;2023-09-08T06:13:54;14.30;;;11.33;;
4595;SDS011;2310;49.978;8.742;2023-09-08T06:17:57;12.93;;;10.27;;
4595;SDS011;2310;49.978;8.742;2023-09-08T06:21:58;12.33;;;11.03;;
4595;SDS011;2310;49.978;8.742;2023-09-08T06:26:00;13.43;;;10.90;;
4595;SDS011;2310;49.978;8.742;2023-09-08T06:30:02;13.93;;;10.97;;
4595;SDS011;2310;49.978;8.742;2023-09-08T06:34:03;12.47;;;10.00;;
4595;SDS011;2310;49.978;8.742;2023-09-08T06:38:05;16.00;;;10.47;;
4595;SDS011;2310;49.978;8.742;2023-09-08T06:42:07;11.60;;;10.43;;
4595;SDS011;2310;49.978;8.742;2023-09-08T06:46:08;10.57;;;9.47;;
4595;SDS011;2310;49.978;8.742;2023-09-08T06:50:09;11.77;;;10.57;;
4595;SDS011;2310;49.978;8.742;2023-09-08T06:54:11;10.70;;;9.60;;
4595;SDS011;2310;49.978;8.742;2023-09-08T06:58:12;14.10;;;9.43;;
4595;SDS011;2310;49.978;8.742;2023-09-08T07:02:15;9.97;;;8.97;;
4595;SDS011;2310;49.978;8.742;2023-09-08T07:06:17;11.77;;;10.57;;
4595;SDS011;2310;49.978;8.742;2023-09-08T07:10:19;10.17;;;9.10;;
4595;SDS011;2310;49.978;8.742;2023-09-08T07:14:21;11.97;;;9.67;;
4595;SDS011;2310;49.978;8.742;2023-09-08T07:18:22;11.13;;;9.00;;
4595;SDS011;2310;49.978;8.742;2023-09-08T07:22:24;11.23;;;10.17;;
4595;SDS011;2310;49.978;8.742;2023-09-08T07:26:25;11.97;;;10.53;;
4595;SDS011;2310;49.978;8.742;2023-09-08T07:30:27;10.90;;;9.90;;
4595;SDS011;2310;49.978;8.742;2023-09-08T07:34:28;11.93;;;10.20;;
4595;SDS011;2310;49.978;8.742;2023-09-08T07:38:30;10.10;;;8.80;;
4595;SDS011;2310;49.978;8.742;2023-09-08T07:42:31;11.60;;;8.50;;
4595;SDS011;2310;49.978;8.742;2023-09-08T07:46:32;10.23;;;9.33;;
4595;SDS011;2310;49.978;8.742;2023-09-08T07:50:34;10.50;;;8.80;;
4595;SDS011;2310;49.978;8.742;2023-09-08T07:54:35;8.83;;;7.93;;
4595;SDS011;2310;49.978;8.742;2023-09-08T07:58:37;8.43;;;7.30;;
4595;SDS011;2310;49.978;8.742;2023-09-08T08:02:41;10.87;;;8.83;;
4595;SDS011;2310;49.978;8.742;2023-09-08T08:06:44;10.53;;;8.87;;
4595;SDS011;2310;49.978;8.742;2023-09-08T08:10:46;8.80;;;7.90;;
4595;SDS011;2310;49.978;8.742;2023-09-08T08:14:47;8.63;;;7.73;;
4595;SDS011;2310;49.978;8.742;2023-09-08T08:18:48;8.47;;;7.67;;
4595;SDS011;2310;49.978;8.742;2023-09-08T08:22:50;7.73;;;6.63;;
4595;SDS011;2310;49.978;8.742;2023-09-08T08:26:51;8.93;;;7.63;;
4595;SDS011;2310;49.978;8.742;2023-09-08T08:30:53;9.23;;;7.73;;
4595;SDS011;2310;49.978;8.742;2023-09-08T08:34:54;8.70;;;7.90;;
4595;SDS011;2310;49.978;8.742;2023-09-08T08:38:56;8.10;;;7.30;;
4595;SDS011;2310;49.978;8.742;2023-09-08T08:42:57;8.23;;;7.43;;
4595;SDS011;2310;49.978;8.742;2023-09-08T08:47:02;10.17;;;8.97;;
4595;SDS011;2310;49.978;8.742;2023-09-08T08:51:03;8.00;;;7.20;;
4595;SDS011;2310;49.978;8.742;2023-09-08T08:55:06;8.00;;;7.20;;
4595;SDS011;2310;49.978;8.742;2023-09-08T08:59:10;9.30;;;8.50;;
4595;SDS011;2310;49.978;8.742;2023-09-08T09:03:12;7.90;;;7.20;;
4595;SDS011;2310;49.978;8.742;2023-09-08T09:07:16;8.70;;;7.90;;
4595;SDS011;2310;49.978;8.742;2023-09-08T09:11:19;7.30;;;6.60;;
4595;SDS011;2310;49.978;8.742;2023-09-08T09:15:30;8.43;;;7.33;;
4595;SDS011;2310;49.978;8.742;2023-09-08T09:19:33;8.77;;;7.00;;
4595;SDS011;2310;49.978;8.742;2023-09-08T09:23:36;8.77;;;6.97;;
4595;SDS011;2310;49.978;8.742;2023-09-08T09:27:37;8.30;;;7.50;;
4595;SDS011;2310;49.978;8.742;2023-09-08T09:31:54;8.20;;;7.40;;
4595;SDS011;2310;49.978;8.742;2023-09-08T09:35:57;7.53;;;6.73;;
4595;SDS011;2310;49.978;8.742;2023-09-08T09:40:00;8.33;;;7.53;;
4595;SDS011;2310;49.978;8.742;2023-09-08T09:44:01;8.00;;;7.20;;
4595;SDS011;2310;49.978;8.742;2023-09-08T09:48:05;8.47;;;7.67;;
4595;SDS011;2310;49.978;8.742;2023-09-08T09:52:08;8.80;;;7.80;;
4595;SDS011;2310;49.978;8.742;2023-09-08T09:56:09;8.37;;;7.33;;
4595;SDS011;2310;49.978;8.742;2023-09-08T10:00:12;7.63;;;6.93;;
4595;SDS011;2310;49.978;8.742;2023-09-08T10:04:15;7.93;;;7.17;;
4595;SDS011;2310;49.978;8.742;2023-09-08T10:08:18;8.60;;;7.77;;
4595;SDS011;2310;49.978;8.742;2023-09-08T10:12:19;7.13;;;6.43;;
4595;SDS011;2310;49.978;8.742;2023-09-08T10:16:21;8.93;;;8.13;;
4595;SDS011;2310;49.978;8.742;2023-09-08T10:20:24;13.53;;;7.83;;
4595;SDS011;2310;49.978;8.742;2023-09-08T10:24:29;8.40;;;6.80;;
4595;SDS011;2310;49.978;8.742;2023-09-08T10:28:33;7.83;;;7.03;;
4595;SDS011;2310;49.978;8.742;2023-09-08T10:32:37;6.83;;;6.17;;
4595;SDS011;2310;49.978;8.742;2023-09-08T10:36:42;7.30;;;6.60;;
4595;SDS011;2310;49.978;8.742;2023-09-08T10:40:44;7.60;;;6.60;;
4595;SDS011;2310;49.978;8.742;2023-09-08T10:48:53;7.23;;;6.50;;
4595;SDS011;2310;49.978;8.742;2023-09-08T10:53:06;7.93;;;7.23;;
4595;SDS011;2310;49.978;8.742;2023-09-08T10:57:16;9.77;;;6.87;;
4595;SDS011;2310;49.978;8.742;2023-09-08T11:01:21;7.83;;;6.47;;
4595;SDS011;2310;49.978;8.742;2023-09-08T11:05:25;6.97;;;6.27;;
4595;SDS011;2310;49.978;8.742;2023-09-08T11:09:27;7.60;;;6.97;;
4595;SDS011;2310;49.978;8.742;2023-09-08T11:13:29;6.50;;;5.90;;
4595;SDS011;2310;49.978;8.742;2023-09-08T11:17:30;6.97;;;6.30;;
4595;SDS011;2310;49.978;8.742;2023-09-08T11:21:33;8.13;;;7.40;;
4595;SDS011;2310;49.978;8.742;2023-09-08T11:25:39;7.63;;;6.70;;
4595;SDS011;2310;49.978;8.742;2023-09-08T11:29:41;7.00;;;6.30;;
4595;SDS011;2310;49.978;8.742;2023-09-08T11:33:42;7.57;;;6.60;;
4595;SDS011;2310;49.978;8.742;2023-09-08T11:37:44;9.10;;;7.10;;
4595;SDS011;2310;49.978;8.742;2023-09-08T11:41:47;6.50;;;5.80;;
4595;SDS011;2310;49.978;8.742;2023-09-08T11:45:48;7.67;;;6.13;;
4595;SDS011;2310;49.978;8.742;2023-09-08T11:49:52;9.63;;;6.63;;
4595;SDS011;2310;49.978;8.742;2023-09-08T11:53:53;9.03;;;6.70;;
4595;SDS011;2310;49.978;8.742;2023-09-08T11:57:55;7.10;;;6.40;;
4595;SDS011;2310;49.978;8.742;2023-09-08T12:02:02;7.33;;;6.50;;
4595;SDS011;2310;49.978;8.742;2023-09-08T12:06:05;6.83;;;6.13;;
4595;SDS011;2310;49.978;8.742;2023-09-08T12:10:07;7.20;;;6.50;;
4595;SDS011;2310;49.978;8.742;2023-09-08T12:14:11;8.13;;;6.70;;
4595;SDS011;2310;49.978;8.742;2023-09-08T12:18:13;6.73;;;6.03;;
4595;SDS011;2310;49.978;8.742;2023-09-08T12:22:18;9.90;;;6.00;;
4595;SDS011;2310;49.978;8.742;2023-09-08T12:26:22;7.23;;;6.53;;
4595;SDS011;2310;49.978;8.742;2023-09-08T12:30:28;6.80;;;6.10;;
4595;SDS011;2310;49.978;8.742;2023-09-08T12:34:34;7.40;;;6.70;;
4595;SDS011;2310;49.978;8.742;2023-09-08T12:38:36;7.53;;;6.20;;
4595;SDS011;2310;49.978;8.742;2023-09-08T12:42:38;6.60;;;6.00;;
4595;SDS011;2310;49.978;8.742;2023-09-08T12:46:42;6.87;;;6.13;;
4595;SDS011;2310;49.978;8.742;2023-09-08T12:50:43;6.83;;;6.23;;
4595;SDS011;2310;49.978;8.742;2023-09-08T12:54:45;7.00;;;6.30;;
4595;SDS011;2310;49.978;8.742;2023-09-08T12:58:47;7.03;;;6.37;;
4595;SDS011;2310;49.978;8.742;2023-09-08T13:02:50;6.93;;;6.33;;
4595;SDS011;2310;49.978;8.742;2023-09-08T13:06:51;8.30;;;7.03;;
4595;SDS011;2310;49.978;8.742;2023-09-08T13:10:53;6.97;;;5.90;;
4595;SDS011;2310;49.978;8.742;2023-09-08T13:14:54;7.13;;;6.40;;
4595;SDS011;2310;49.978;8.742;2023-09-08T13:18:56;6.97;;;6.23;;
4595;SDS011;2310;49.978;8.742;2023-09-08T13:22:57;6.97;;;5.47;;
4595;SDS011;2310;49.978;8.742;2023-09-08T13:26:59;8.60;;;6.83;;
4595;SDS011;2310;49.978;8.742;2023-09-08T13:31:01;6.67;;;5.83;;
4595;SDS011;2310;49.978;8.742;2023-09-08T13:35:03;6.90;;;6.20;;
4595;SDS011;2310;49.978;8.742;2023-09-08T13:39:05;7.90;;;6.47;;
4595;SDS011;2310;49.978;8.742;2023-09-08T13:43:06;6.00;;;5.40;;
4595;SDS011;2310;49.978;8.742;2023-09-08T13:47:08;6.50;;;5.73;;
4595;SDS011;2310;49.978;8.742;2023-09-08T13:51:10;8.10;;;6.70;;
4595;SDS011;2310;49.978;8.742;2023-09-08T13:55:13;7.37;;;6.67;;
4595;SDS011;2310;49.978;8.742;2023-09-08T13:59:16;9.03;;;6.07;;
4595;SDS011;2310;49.978;8.742;2023-09-08T14:03:19;6.80;;;5.97;;
4595;SDS011;2310;49.978;8.742;2023-09-08T14:07:22;6.70;;;6.10;;
4595;SDS011;2310;49.978;8.742;2023-09-08T14:11:26;6.93;;;6.30;;
4595;SDS011;2310;49.978;8.742;2023-09-08T14:15:29;7.00;;;6.30;;
4595;SDS011;2310;49.978;8.742;2023-09-08T14:19:31;8.67;;;6.80;;
4595;SDS011;2310;49.978;8.742;2023-09-08T14:23:33;7.47;;;6.37;;
4595;SDS011;2310;49.978;8.742;2023-09-08T14:27:36;9.97;;;7.57;;
4595;SDS011;2310;49.978;8.742;2023-09-08T14:31:38;7.30;;;6.33;;
4595;SDS011;2310;49.978;8.742;2023-09-08T14:35:43;7.20;;;6.50;;
4595;SDS011;2310;49.978;8.742;2023-09-08T14:39:45;6.43;;;5.67;;
4595;SDS011;2310;49.978;8.742;2023-09-08T14:43:47;8.90;;;6.20;;
4595;SDS011;2310;49.978;8.742;2023-09-08T14:47:48;8.57;;;7.07;;
4595;SDS011;2310;49.978;8.742;2023-09-08T14:51:50;7.20;;;6.50;;
4595;SDS011;2310;49.978;8.742;2023-09-08T14:55:52;7.40;;;6.70;;
4595;SDS011;2310;49.978;8.742;2023-09-08T14:59:55;7.60;;;6.80;;
4595;SDS011;2310;49.978;8.742;2023-09-08T15:04:02;7.13;;;6.13;;
4595;SDS011;2310;49.978;8.742;2023-09-08T15:08:02;6.80;;;6.10;;
4595;SDS011;2310;49.978;8.742;2023-09-08T15:12:04;7.77;;;6.53;;
4595;SDS011;2310;49.978;8.742;2023-09-08T15:16:06;8.03;;;6.10;;
4595;SDS011;2310;49.978;8.742;2023-09-08T15:20:07;12.93;;;6.90;;
4595;SDS011;2310;49.978;8.742;2023-09-08T15:24:10;6.00;;;5.40;;
4595;SDS011;2310;49.978;8.742;2023-09-08T15:28:11;7.70;;;5.47;;
4595;SDS011;2310;49.978;8.742;2023-09-08T15:32:13;7.07;;;6.37;;
4595;SDS011;2310;49.978;8.742;2023-09-08T15:36:14;7.87;;;7.07;;
4595;SDS011;2310;49.978;8.742;2023-09-08T15:40:16;7.83;;;5.67;;
4595;SDS011;2310;49.978;8.742;2023-09-08T15:44:17;9.50;;;6.40;;
4595;SDS011;2310;49.978;8.742;2023-09-08T15:48:19;6.37;;;5.60;;
4595;SDS011;2310;49.978;8.742;2023-09-08T15:52:20;8.00;;;7.07;;
4595;SDS011;2310;49.978;8.742;2023-09-08T15:56:22;9.00;;;6.53;;
4595;SDS011;2310;49.978;8.742;2023-09-08T16:00:23;6.63;;;5.33;;
4595;SDS011;2310;49.978;8.742;2023-09-08T16:04:24;6.97;;;6.27;;
4595;SDS011;2310;49.978;8.742;2023-09-08T16:08:27;8.20;;;7.33;;
4595;SDS011;2310;49.978;8.742;2023-09-08T16:12:29;7.63;;;6.37;;
4595;SDS011;2310;49.978;8.742;2023-09-08T16:16:32;7.90;;;6.40;;
4595;SDS011;2310;49.978;8.742;2023-09-08T16:20:33;12.40;;;6.93;;
4595;SDS011;2310;49.978;8.742;2023-09-08T16:24:35;9.90;;;6.40;;
4595;SDS011;2310;49.978;8.742;2023-09-08T16:28:37;10.70;;;6.57;;
4595;SDS011;2310;49.978;8.742;2023-09-08T16:32:38;11.60;;;7.27;;
4595;SDS011;2310;49.978;8.742;2023-09-08T16:36:40;9.30;;;6.30;;
4595;SDS011;2310;49.978;8.742;2023-09-08T16:40:43;9.20;;;8.30;;
4595;SDS011;2310;49.978;8.742;2023-09-08T16:44:45;8.90;;;8.00;;
4595;SDS011;2310;49.978;8.742;2023-09-08T16:48:47;11.03;;;6.97;;
4595;SDS011;2310;49.978;8.742;2023-09-08T16:52:50;7.70;;;7.00;;
4595;SDS011;2310;49.978;8.742;2023-09-08T16:56:51;8.20;;;7.00;;
4595;SDS011;2310;49.978;8.742;2023-09-08T17:00:52;8.70;;;7.83;;
4595;SDS011;2310;49.978;8.742;2023-09-08T17:04:53;10.10;;;7.67;;
4595;SDS011;2310;49.978;8.742;2023-09-08T17:08:55;10.73;;;7.20;;
4595;SDS011;2310;49.978;8.742;2023-09-08T17:12:56;8.33;;;7.47;;
4595;SDS011;2310;49.978;8.742;2023-09-08T17:16:58;9.87;;;7.20;;
4595;SDS011;2310;49.978;8.742;2023-09-08T17:20:59;7.90;;;7.10;;
4595;SDS011;2310;49.978;8.742;2023-09-08T17:25:01;7.53;;;6.80;;
4595;SDS011;2310;49.978;8.742;2023-09-08T17:29:02;8.03;;;7.20;;
4595;SDS011;2310;49.978;8.742;2023-09-08T17:33:04;8.60;;;7.70;;
4595;SDS011;2310;49.978;8.742;2023-09-08T17:37:05;9.37;;;8.17;;
4595;SDS011;2310;49.978;8.742;2023-09-08T17:41:06;10.00;;;7.60;;
4595;SDS011;2310;49.978;8.742;2023-09-08T17:45:09;10.60;;;7.60;;
4595;SDS011;2310;49.978;8.742;2023-09-08T17:49:10;9.40;;;7.97;;
4595;SDS011;2310;49.978;8.742;2023-09-08T17:53:12;9.10;;;7.60;;
4595;SDS011;2310;49.978;8.742;2023-09-08T17:57:13;8.63;;;7.83;;
4595;SDS011;2310;49.978;8.742;2023-09-08T18:01:15;8.00;;;6.87;;
4595;SDS011;2310;49.978;8.742;2023-09-08T18:05:16;10.03;;;8.33;;
4595;SDS011;2310;49.978;8.742;2023-09-08T18:09:17;8.77;;;7.80;;
4595;SDS011;2310;49.978;8.742;2023-09-08T18:13:19;14.97;;;8.50;;
4595;SDS011;2310;49.978;8.742;2023-09-08T18:17:21;10.77;;;8.50;;
4595;SDS011;2310;49.978;8.742;2023-09-08T18:21:23;12.63;;;8.13;;
4595;SDS011;2310;49.978;8.742;2023-09-08T18:25:24;10.63;;;9.23;;
4595;SDS011;2310;49.978;8.742;2023-09-08T18:29:25;9.20;;;7.97;;
4595;SDS011;2310;49.978;8.742;2023-09-08T18:33:29;13.07;;;9.43;;
4595;SDS011;2310;49.978;8.742;2023-09-08T18:37:30;9.80;;;8.80;;
4595;SDS011;2310;49.978;8.742;2023-09-08T18:41:31;10.83;;;9.83;;
4595;SDS011;2310;49.978;8.742;2023-09-08T18:45:33;10.17;;;9.17;;
4595;SDS011;2310;49.978;8.742;2023-09-08T18:49:35;10.63;;;9.53;;
4595;SDS011;2310;49.978;8.742;2023-09-08T18:53:36;14.40;;;10.27;;
4595;SDS011;2310;49.978;8.742;2023-09-08T18:57:39;10.57;;;9.57;;
4595;SDS011;2310;49.978;8.742;2023-09-08T19:01:40;10.30;;;9.30;;
4595;SDS011;2310;49.978;8.742;2023-09-08T19:05:42;10.20;;;8.87;;
4595;SDS011;2310;49.978;8.742;2023-09-08T19:09:43;10.00;;;9.00;;
4595;SDS011;2310;49.978;8.742;2023-09-08T19:13:44;9.40;;;8.37;;
4595;SDS011;2310;49.978;8.742;2023-09-08T19:17:46;11.07;;;8.90;;
4595;SDS011;2310;49.978;8.742;2023-09-08T19:21:47;10.73;;;9.70;;
4595;SDS011;2310;49.978;8.742;2023-09-08T19:25:49;13.47;;;11.50;;
4595;SDS011;2310;49.978;8.742;2023-09-08T19:29:50;13.73;;;12.30;;
4595;SDS011;2310;49.978;8.742;2023-09-08T19:33:52;12.80;;;11.50;;
4595;SDS011;2310;49.978;8.742;2023-09-08T19:37:53;11.57;;;10.37;;
4595;SDS011;2310;49.978;8.742;2023-09-08T19:41:55;10.10;;;9.07;;
4595;SDS011;2310;49.978;8.742;2023-09-08T19:46:00;11.03;;;9.93;;
4595;SDS011;2310;49.978;8.742;2023-09-08T19:50:05;10.50;;;9.50;;
4595;SDS011;2310;49.978;8.742;2023-09-08T19:54:07;11.67;;;10.20;;
4595;SDS011;2310;49.978;8.742;2023-09-08T19:58:09;12.10;;;10.07;;
4595;SDS011;2310;49.978;8.742;2023-09-08T20:02:10;12.03;;;10.50;;
4595;SDS011;2310;49.978;8.742;2023-09-08T20:06:12;13.27;;;10.37;;
4595;SDS011;2310;49.978;8.742;2023-09-08T20:10:16;10.53;;;9.20;;
4595;SDS011;2310;49.978;8.742;2023-09-08T20:14:17;9.90;;;9.00;;
4595;SDS011;2310;49.978;8.742;2023-09-08T20:18:18;10.87;;;9.70;;
4595;SDS011;2310;49.978;8.742;2023-09-08T20:22:20;10.20;;;9.20;;
4595;SDS011;2310;49.978;8.742;2023-09-08T20:26:22;11.67;;;9.43;;
4595;SDS011;2310;49.978;8.742;2023-09-08T20:30:24;12.03;;;9.80;;
4595;SDS011;2310;49.978;8.742;2023-09-08T20:34:26;10.13;;;9.20;;
4595;SDS011;2310;49.978;8.742;2023-09-08T20:38:27;11.97;;;10.77;;
4595;SDS011;2310;49.978;8.742;2023-09-08T20:42:28;10.80;;;9.80;;
4595;SDS011;2310;49.978;8.742;2023-09-08T20:46:30;11.37;;;10.20;;
4595;SDS011;2310;49.978;8.742;2023-09-08T20:50:31;11.57;;;10.40;;
4595;SDS011;2310;49.978;8.742;2023-09-08T20:54:33;11.87;;;10.77;;
4595;SDS011;2310;49.978;8.742;2023-09-08T20:58:35;11.20;;;10.03;;
4595;SDS011;2310;49.978;8.742;2023-09-08T21:02:38;11.20;;;10.13;;
4595;SDS011;2310;49.978;8.742;2023-09-08T21:06:39;10.20;;;9.17;;
4595;SDS011;2310;49.978;8.742;2023-09-08T21:10:40;10.10;;;8.50;;
4595;SDS011;2310;49.978;8.742;2023-09-08T21:14:43;9.87;;;8.87;;
4595;SDS011;2310;49.978;8.742;2023-09-08T21:18:44;12.40;;;10.13;;
4595;SDS011;2310;49.978;8.742;2023-09-08T21:22:46;12.13;;;10.93;;
4595;SDS011;2310;49.978;8.742;2023-09-08T21:26:47;12.20;;;11.17;;
4595;SDS011;2310;49.978;8.742;2023-09-08T21:30:51;10.63;;;9.53;;
4595;SDS011;2310;49.978;8.742;2023-09-08T21:34:52;11.10;;;10.00;;
4595;SDS011;2310;49.978;8.742;2023-09-08T21:38:54;11.67;;;10.23;;
4595;SDS011;2310;49.978;8.742;2023-09-08T21:42:57;12.53;;;11.23;;
4595;SDS011;2310;49.978;8.742;2023-09-08T21:46:58;11.97;;;10.87;;
4595;SDS011;2310;49.978;8.742;2023-09-08T21:51:00;11.23;;;10.13;;
4595;SDS011;2310;49.978;8.742;2023-09-08T21:55:01;12.50;;;11.20;;
4595;SDS011;2310;49.978;8.742;2023-09-08T21:59:06;14.17;;;11.60;;
4595;SDS011;2310;49.978;8.742;2023-09-08T22:03:07;12.53;;;11.23;;
4595;SDS011;2310;49.978;8.742;2023-09-08T22:07:09;13.80;;;11.90;;
4595;SDS011;2310;49.978;8.742;2023-09-08T22:11:11;12.70;;;11.37;;
4595;SDS011;2310;49.978;8.742;2023-09-08T22:15:13;12.53;;;11.30;;
4595;SDS011;2310;49.978;8.742;2023-09-08T22:19:14;12.80;;;11.50;;
4595;SDS011;2310;49.978;8.742;2023-09-08T22:23:16;13.40;;;12.20;;
4595;SDS011;2310;49.978;8.742;2023-09-08T22:27:17;13.30;;;12.00;;
4595;SDS011;2310;49.978;8.742;2023-09-08T22:31:18;15.10;;;13.57;;
4595;SDS011;2310;49.978;8.742;2023-09-08T22:35:20;14.53;;;13.03;;
4595;SDS011;2310;49.978;8.742;2023-09-08T22:39:21;15.33;;;13.73;;
4595;SDS011;2310;49.978;8.742;2023-09-08T22:43:23;14.97;;;13.57;;
4595;SDS011;2310;49.978;8.742;2023-09-08T22:47:25;14.33;;;12.93;;
4595;SDS011;2310;49.978;8.742;2023-09-08T22:51:27;14.90;;;13.60;;
4595;SDS011;2310;49.978;8.742;2023-09-08T22:55:28;15.13;;;13.63;;
4595;SDS011;2310;49.978;8.742;2023-09-08T22:59:30;14.80;;;13.30;;
4595;SDS011;2310;49.978;8.742;2023-09-08T23:03:31;14.73;;;13.33;;
4595;SDS011;2310;49.978;8.742;2023-09-08T23:07:33;14.77;;;13.37;;
4595;SDS011;2310;49.978;8.742;2023-09-08T23:11:34;14.77;;;13.37;;
4595;SDS011;2310;49.978;8.742;2023-09-08T23:15:36;16.33;;;14.07;;
4595;SDS011;2310;49.978;8.742;2023-09-08T23:19:37;15.70;;;14.20;;
4595;SDS011;2310;49.978;8.742;2023-09-08T23:23:38;14.23;;;12.57;;
4595;SDS011;2310;49.978;8.742;2023-09-08T23:27:40;14.47;;;13.03;;
4595;SDS011;2310;49.978;8.742;2023-09-08T23:31:41;15.97;;;14.23;;
4595;SDS011;2310;49.978;8.742;2023-09-08T23:35:43;15.77;;;14.27;;
4595;SDS011;2310;49.978;8.742;2023-09-08T23:39:44;16.00;;;14.30;;
4595;SDS011;2310;49.978;8.742;2023-09-08T23:43:45;14.97;;;13.43;;
4595;SDS011;2310;49.978;8.742;2023-09-08T23:47:47;15.83;;;14.27;;
4595;SDS011;2310;49.978;8.742;2023-09-08T23:51:49;16.00;;;13.87;;
4595;SDS011;2310;49.978;8.742;2023-09-08T23:55:50;16.90;;;12.90;;
4595;SDS011;2310;49.978;8.742;2023-09-08T23:59:52;15.57;;;14.00;;
